createdAt,value
2024-03-16T00:02:39.749Z,16.40
2024-03-16T00:05:28.883Z,14.80
2024-03-16T00:08:16.898Z,16.40
2024-03-16T00:11:04.683Z,19.60
2024-03-16T00:13:52.564Z,18.30
2024-03-16T00:16:40.309Z,21.30
2024-03-16T00:19:28.104Z,18.50
2024-03-16T00:22:16.539Z,17.90
2024-03-16T00:25:06.193Z,18.40
2024-03-16T00:27:54.240Z,15.40
2024-03-16T00:30:43.082Z,16.90
2024-03-16T00:33:30.938Z,17.90
2024-03-16T00:36:18.924Z,19.10
2024-03-16T00:39:16.849Z,18.10
2024-03-16T00:42:05.217Z,14.10
2024-03-16T00:44:53.004Z,19.90
2024-03-16T00:47:41.603Z,15.90
2024-03-16T00:50:30.216Z,16.10
2024-03-16T00:53:19.199Z,16.10
2024-03-16T00:56:07.067Z,17.80
2024-03-16T00:58:55.066Z,14.60
2024-03-16T01:01:44.151Z,12.10
2024-03-16T01:04:35.469Z,15.40
2024-03-16T01:07:23.778Z,14.90
2024-03-16T01:10:13.378Z,15.00
2024-03-16T01:13:01.711Z,19.60
2024-03-16T01:15:51.139Z,18.00
2024-03-16T01:18:41.103Z,12.80
2024-03-16T01:21:29.186Z,14.10
2024-03-16T01:24:17.063Z,16.30
2024-03-16T01:27:04.726Z,15.90
2024-03-16T01:29:52.734Z,16.90
2024-03-16T01:32:40.438Z,19.90
2024-03-16T01:35:28.409Z,14.80
2024-03-16T01:38:19.731Z,16.90
2024-03-16T01:41:07.950Z,17.20
2024-03-16T01:44:10.764Z,16.30
2024-03-16T01:46:59.022Z,16.70
2024-03-16T01:49:47.082Z,14.50
2024-03-16T01:52:34.683Z,17.70
2024-03-16T01:55:22.732Z,16.00
2024-03-16T01:58:10.600Z,15.30
2024-03-16T02:00:58.840Z,16.30
2024-03-16T02:03:47.900Z,20.40
2024-03-16T02:06:36.103Z,18.00
2024-03-16T02:09:24.593Z,15.10
2024-03-16T02:12:14.155Z,16.30
2024-03-16T02:15:03.669Z,15.80
2024-03-16T02:17:51.942Z,15.40
2024-03-16T02:20:39.937Z,15.50
2024-03-16T02:23:27.957Z,16.60
2024-03-16T02:26:15.640Z,15.30
2024-03-16T02:29:04.000Z,21.00
2024-03-16T02:31:54.281Z,98.90
2024-03-16T02:34:43.098Z,65.60
2024-03-16T02:37:31.241Z,68.00
2024-03-16T02:40:18.978Z,62.60
2024-03-16T02:43:07.552Z,53.60
2024-03-16T02:45:59.001Z,46.10
2024-03-16T02:48:47.148Z,35.90
2024-03-16T02:51:35.343Z,31.90
2024-03-16T02:54:23.405Z,34.20
2024-03-16T02:57:11.221Z,28.20
2024-03-16T02:59:58.786Z,21.50
2024-03-16T03:02:46.586Z,23.10
2024-03-16T03:05:34.408Z,25.20
2024-03-16T03:08:22.608Z,26.30
2024-03-16T03:11:10.851Z,23.10
2024-03-16T03:13:58.584Z,23.10
2024-03-16T03:16:46.386Z,17.50
2024-03-16T03:19:34.159Z,24.00
2024-03-16T03:22:21.852Z,26.40
2024-03-16T03:25:11.670Z,19.90
2024-03-16T03:28:00.337Z,21.40
2024-03-16T03:30:50.306Z,16.70
2024-03-16T03:33:39.487Z,15.70
2024-03-16T03:36:27.930Z,21.70
2024-03-16T03:39:17.229Z,18.50
2024-03-16T03:42:05.640Z,17.30
2024-03-16T03:45:12.387Z,18.10
2024-03-16T03:48:19.751Z,27.70
2024-03-16T03:51:08.157Z,25.60
2024-03-16T03:53:58.919Z,21.20
2024-03-16T03:56:47.104Z,20.80
2024-03-16T03:59:35.376Z,24.30
2024-03-16T04:02:23.211Z,17.50
2024-03-16T04:05:11.068Z,19.90
2024-03-16T04:07:59.934Z,17.40
2024-03-16T04:10:48.230Z,13.60
2024-03-16T04:13:35.882Z,15.90
2024-03-16T04:16:23.773Z,16.70
2024-03-16T04:19:12.270Z,14.60
2024-03-16T04:22:00.380Z,18.20
2024-03-16T04:24:48.517Z,14.90
2024-03-16T04:27:37.360Z,16.80
2024-03-16T04:30:25.255Z,16.20
2024-03-16T04:33:13.794Z,14.10
2024-03-16T04:36:01.481Z,15.90
2024-03-16T04:38:49.675Z,14.40
2024-03-16T04:41:37.312Z,13.60
2024-03-16T04:44:25.045Z,12.30
2024-03-16T04:47:12.914Z,15.00
2024-03-16T04:50:01.561Z,14.80
2024-03-16T04:52:49.591Z,13.30
2024-03-16T04:55:37.360Z,14.80
2024-03-16T04:58:26.475Z,14.00
2024-03-16T05:01:14.970Z,14.30
2024-03-16T05:04:03.039Z,16.50
2024-03-16T05:06:50.949Z,13.40
2024-03-16T05:09:38.779Z,15.50
2024-03-16T05:12:26.258Z,12.80
2024-03-16T05:15:14.012Z,13.70
2024-03-16T05:18:01.752Z,16.90
2024-03-16T05:20:52.301Z,14.40
2024-03-16T05:23:41.035Z,14.40
2024-03-16T05:26:31.898Z,12.60
2024-03-16T05:29:20.201Z,14.60
2024-03-16T05:32:08.130Z,14.40
2024-03-16T05:34:56.572Z,12.10
2024-03-16T05:37:44.541Z,13.10
2024-03-16T05:40:32.540Z,10.70
2024-03-16T05:43:20.229Z,13.20
2024-03-16T05:46:07.735Z,14.00
2024-03-16T05:48:55.903Z,13.30
2024-03-16T05:51:44.827Z,13.80
2024-03-16T05:54:35.378Z,10.30
2024-03-16T05:57:23.692Z,10.50
2024-03-16T06:00:15.708Z,11.90
2024-03-16T06:03:04.052Z,13.60
2024-03-16T06:05:52.903Z,10.20
2024-03-16T06:08:40.634Z,12.40
2024-03-16T06:11:28.465Z,12.10
2024-03-16T06:14:16.918Z,11.70
2024-03-16T06:17:05.207Z,14.40
2024-03-16T06:19:54.993Z,12.20
2024-03-16T06:22:43.212Z,11.30
2024-03-16T06:25:37.143Z,12.70
2024-03-16T06:28:25.457Z,12.60
2024-03-16T06:31:13.243Z,14.00
2024-03-16T06:34:05.964Z,10.90
2024-03-16T06:36:54.486Z,11.40
2024-03-16T06:39:42.666Z,12.80
2024-03-16T06:42:30.802Z,11.20
2024-03-16T06:45:18.721Z,14.00
2024-03-16T06:48:07.379Z,11.30
2024-03-16T06:50:55.388Z,12.20
2024-03-16T06:53:43.602Z,13.60
2024-03-16T06:56:32.337Z,12.60
2024-03-16T06:59:20.545Z,12.00
2024-03-16T07:02:09.345Z,13.00
2024-03-16T07:04:57.395Z,11.90
2024-03-16T07:07:45.308Z,9.80
2024-03-16T07:10:33.127Z,13.50
2024-03-16T07:13:21.470Z,12.80
2024-03-16T07:16:15.117Z,13.70
2024-03-16T07:19:04.040Z,12.50
2024-03-16T07:21:52.405Z,9.80
2024-03-16T07:24:40.178Z,12.20
2024-03-16T07:27:27.720Z,12.10
2024-03-16T07:30:15.547Z,9.90
2024-03-16T07:33:04.810Z,12.50
2024-03-16T07:35:53.451Z,12.10
2024-03-16T07:38:41.479Z,10.00
2024-03-16T07:41:29.592Z,12.40
2024-03-16T07:44:17.348Z,15.50
2024-03-16T07:47:05.601Z,13.10
2024-03-16T07:49:53.719Z,13.70
2024-03-16T07:52:41.333Z,11.90
2024-03-16T07:55:31.210Z,10.80
2024-03-16T07:58:19.168Z,12.70
2024-03-16T08:01:07.301Z,10.80
2024-03-16T08:03:55.063Z,13.80
2024-03-16T08:06:43.134Z,10.00
2024-03-16T08:09:31.858Z,12.50
2024-03-16T08:12:19.667Z,11.50
2024-03-16T08:15:08.273Z,10.50
2024-03-16T08:17:58.767Z,11.30
2024-03-16T08:23:34.499Z,14.10
2024-03-16T08:26:22.384Z,10.60
2024-03-16T08:29:10.173Z,8.60
2024-03-16T08:31:59.579Z,9.50
2024-03-16T08:34:47.790Z,12.00
2024-03-16T08:37:35.708Z,11.80
2024-03-16T08:40:23.420Z,14.30
2024-03-16T08:43:12.613Z,9.50
2024-03-16T08:46:07.310Z,11.90
2024-03-16T08:48:55.042Z,9.90
2024-03-16T08:51:44.157Z,9.50
2024-03-16T08:54:39.007Z,10.80
2024-03-16T08:57:28.121Z,11.20
2024-03-16T09:00:16.037Z,8.40
2024-03-16T09:03:06.061Z,10.70
2024-03-16T09:05:54.688Z,9.10
2024-03-16T09:08:42.908Z,10.30
2024-03-16T09:11:30.915Z,12.40
2024-03-16T09:14:18.810Z,9.60
2024-03-16T09:17:06.752Z,10.40
2024-03-16T09:19:55.480Z,10.50
2024-03-16T09:22:44.775Z,10.80
2024-03-16T09:25:33.026Z,8.30
2024-03-16T09:28:23.167Z,9.70
2024-03-16T09:31:11.665Z,10.20
2024-03-16T09:34:00.776Z,9.10
2024-03-16T09:36:49.025Z,9.70
2024-03-16T09:39:36.767Z,8.30
2024-03-16T09:42:24.362Z,7.70
2024-03-16T09:45:19.596Z,7.20
2024-03-16T09:48:10.776Z,6.40
2024-03-16T09:50:59.362Z,7.00
2024-03-16T09:53:47.227Z,6.10
2024-03-16T09:56:38.083Z,6.00
2024-03-16T09:59:30.951Z,5.50
2024-03-16T10:02:25.689Z,6.70
2024-03-16T10:05:14.493Z,6.00
2024-03-16T10:08:02.644Z,5.00
2024-03-16T10:10:51.925Z,5.30
2024-03-16T10:13:54.286Z,4.30
2024-03-16T10:19:33.395Z,6.80
2024-03-16T10:22:21.513Z,7.50
2024-03-16T10:25:11.041Z,8.60
2024-03-16T10:27:58.633Z,6.20
2024-03-16T10:30:47.134Z,6.30
2024-03-16T10:33:39.600Z,10.60
2024-03-16T10:36:30.270Z,6.80
2024-03-16T10:39:19.026Z,7.00
2024-03-16T10:42:16.719Z,4.60
2024-03-16T10:45:05.211Z,6.40
2024-03-16T10:47:57.194Z,8.90
2024-03-16T10:50:48.629Z,8.30
2024-03-16T10:53:40.700Z,6.90
2024-03-16T10:56:33.621Z,15.10
2024-03-16T10:59:34.237Z,5.80
2024-03-16T11:02:24.510Z,5.90
2024-03-16T11:05:40.648Z,8.80
2024-03-16T11:08:47.843Z,4.80
2024-03-16T11:11:36.604Z,5.90
2024-03-16T11:14:26.287Z,8.50
2024-03-16T11:17:27.695Z,8.80
2024-03-16T11:20:39.241Z,6.10
2024-03-16T11:23:28.645Z,4.10
2024-03-16T11:26:28.575Z,4.40
2024-03-16T11:29:19.983Z,5.20
2024-03-16T11:32:11.579Z,7.30
2024-03-16T11:34:59.318Z,6.90
2024-03-16T11:37:50.588Z,6.30
2024-03-16T11:40:43.992Z,5.50
2024-03-16T11:43:31.937Z,6.20
2024-03-16T11:46:20.643Z,4.10
2024-03-16T11:49:16.036Z,2.60
2024-03-16T11:52:05.919Z,10.10
2024-03-16T11:54:53.735Z,6.20
2024-03-16T11:57:41.902Z,3.80
2024-03-16T12:00:30.670Z,3.40
2024-03-16T12:03:21.552Z,2.40
2024-03-16T12:06:11.531Z,2.70
2024-03-16T12:08:59.165Z,3.90
2024-03-16T12:11:49.876Z,4.10
2024-03-16T12:14:43.232Z,5.00
2024-03-16T12:17:32.199Z,3.90
2024-03-16T12:20:21.305Z,4.90
2024-03-16T12:23:09.824Z,5.00
2024-03-16T12:25:59.836Z,4.00
2024-03-16T12:28:49.331Z,7.10
2024-03-16T12:31:39.372Z,7.70
2024-03-16T12:34:29.181Z,11.80
2024-03-16T12:37:17.605Z,23.40
2024-03-16T12:40:07.296Z,18.70
2024-03-16T12:42:55.426Z,15.70
2024-03-16T12:45:43.217Z,11.20
2024-03-16T12:48:32.027Z,10.10
2024-03-16T12:51:20.872Z,4.80
2024-03-16T12:54:10.976Z,3.80
2024-03-16T12:56:59.307Z,5.70
2024-03-16T12:59:47.668Z,3.10
2024-03-16T13:02:35.821Z,4.00
2024-03-16T13:05:23.897Z,2.30
2024-03-16T13:08:11.904Z,4.40
2024-03-16T13:11:00.242Z,6.50
2024-03-16T13:13:48.762Z,7.70
2024-03-16T13:16:38.216Z,3.60
2024-03-16T13:19:27.799Z,4.50
2024-03-16T13:22:15.652Z,5.90
2024-03-16T13:25:04.980Z,8.20
2024-03-16T13:27:52.375Z,6.30
2024-03-16T13:30:40.466Z,5.60
2024-03-16T13:33:28.329Z,4.90
2024-03-16T13:36:16.957Z,8.50
2024-03-16T13:39:08.973Z,8.70
2024-03-16T13:41:56.817Z,8.10
2024-03-16T13:44:45.214Z,12.30
2024-03-16T13:47:33.405Z,10.40
2024-03-16T13:50:21.352Z,9.30
2024-03-16T13:53:09.494Z,6.00
2024-03-16T13:55:58.971Z,7.50
2024-03-16T13:58:47.221Z,4.60
2024-03-16T14:01:35.783Z,5.70
2024-03-16T14:04:23.817Z,6.00
2024-03-16T14:07:11.640Z,9.00
2024-03-16T14:10:02.193Z,5.30
2024-03-16T14:12:53.382Z,6.10
2024-03-16T14:15:41.332Z,5.70
2024-03-16T14:18:29.683Z,7.90
2024-03-16T14:21:17.330Z,8.00
2024-03-16T14:24:05.624Z,5.00
2024-03-16T14:26:53.394Z,7.70
2024-03-16T14:29:41.401Z,7.00
2024-03-16T14:32:29.884Z,5.00
2024-03-16T14:35:17.670Z,3.80
2024-03-16T14:38:06.693Z,5.50
2024-03-16T14:40:55.799Z,6.70
2024-03-16T14:43:44.794Z,5.00
2024-03-16T14:46:32.731Z,7.70
2024-03-16T14:49:23.020Z,6.50
2024-03-16T14:52:11.503Z,5.80
2024-03-16T14:55:00.328Z,6.10
2024-03-16T14:57:48.378Z,6.10
2024-03-16T15:00:37.147Z,8.30
2024-03-16T15:03:24.870Z,8.50
2024-03-16T15:06:13.213Z,11.00
2024-03-16T15:09:08.050Z,9.00
2024-03-16T15:11:56.058Z,7.90
2024-03-16T15:14:46.687Z,6.90
2024-03-16T15:17:36.553Z,6.10
2024-03-16T15:20:26.227Z,6.30
2024-03-16T15:23:13.756Z,6.00
2024-03-16T15:26:16.972Z,7.30
2024-03-16T15:29:04.966Z,5.90
2024-03-16T15:31:52.942Z,7.40
2024-03-16T15:34:40.596Z,8.40
2024-03-16T15:37:28.883Z,5.00
2024-03-16T15:40:16.994Z,8.00
2024-03-16T15:43:05.018Z,6.70
2024-03-16T15:45:52.632Z,4.80
2024-03-16T15:48:40.190Z,4.00
2024-03-16T15:51:29.975Z,5.00
2024-03-16T15:54:17.783Z,4.30
2024-03-16T15:57:07.303Z,5.00
2024-03-16T15:59:55.230Z,4.60
2024-03-16T16:02:43.186Z,6.70
2024-03-16T16:05:31.104Z,4.00
2024-03-16T16:08:19.253Z,7.40
2024-03-16T16:11:08.039Z,12.70
2024-03-16T16:13:56.141Z,4.90
2024-03-16T16:16:44.269Z,7.70
2024-03-16T16:19:32.421Z,5.50
2024-03-16T16:22:20.506Z,5.70
2024-03-16T16:25:08.736Z,5.60
2024-03-16T16:27:56.493Z,5.20
2024-03-16T16:30:44.722Z,7.60
2024-03-16T16:33:32.492Z,4.80
2024-03-16T16:36:20.671Z,5.50
2024-03-16T16:39:08.815Z,7.90
2024-03-16T16:41:56.750Z,7.00
2024-03-16T16:44:44.688Z,7.30
2024-03-16T16:47:32.525Z,6.80
2024-03-16T16:50:20.273Z,9.70
2024-03-16T16:53:09.839Z,7.00
2024-03-16T16:55:58.396Z,8.20
2024-03-16T16:58:46.025Z,6.40
2024-03-16T17:01:33.866Z,11.10
2024-03-16T17:04:21.601Z,7.80
2024-03-16T17:07:14.055Z,8.80
2024-03-16T17:10:13.458Z,10.00
2024-03-16T17:13:03.141Z,16.80
2024-03-16T17:15:52.087Z,10.30
2024-03-16T17:18:39.657Z,11.10
2024-03-16T17:21:27.380Z,16.30
2024-03-16T17:24:15.197Z,13.40
2024-03-16T17:27:07.327Z,15.00
2024-03-16T17:29:55.689Z,11.50
2024-03-16T17:32:44.038Z,12.90
2024-03-16T17:35:34.988Z,9.70
2024-03-16T17:38:25.970Z,12.70
2024-03-16T17:41:14.162Z,13.00
2024-03-16T17:44:02.058Z,13.50
2024-03-16T17:46:49.804Z,13.90
2024-03-16T17:49:39.970Z,14.90
2024-03-16T17:52:27.632Z,12.30
2024-03-16T17:55:16.803Z,17.60
2024-03-16T17:58:06.349Z,11.50
2024-03-16T18:00:54.191Z,45.00
2024-03-16T18:03:42.058Z,64.20
2024-03-16T18:06:29.761Z,26.20
2024-03-16T18:09:21.716Z,14.60
2024-03-16T18:12:12.185Z,11.00
2024-03-16T18:14:59.808Z,149.80
2024-03-16T18:17:54.664Z,154.00
2024-03-16T18:20:46.767Z,51.60
2024-03-16T18:23:35.516Z,57.70
2024-03-16T18:26:23.456Z,140.00
2024-03-16T18:29:11.103Z,146.20
2024-03-16T18:31:58.933Z,100.20
2024-03-16T18:34:47.067Z,31.50
2024-03-16T18:37:35.136Z,70.70
2024-03-16T18:40:22.949Z,61.40
2024-03-16T18:43:15.940Z,41.20
2024-03-16T18:46:04.665Z,24.40
2024-03-16T18:48:54.686Z,20.20
2024-03-16T18:51:42.722Z,22.50
2024-03-16T18:54:30.529Z,28.50
2024-03-16T18:57:20.006Z,25.10
2024-03-16T19:00:18.391Z,18.80
2024-03-16T19:03:14.397Z,19.30
2024-03-16T19:06:05.763Z,21.30
2024-03-16T19:08:53.704Z,22.00
2024-03-16T19:11:42.493Z,23.20
2024-03-16T19:14:30.681Z,22.50
2024-03-16T19:17:18.785Z,28.80
2024-03-16T19:20:08.711Z,20.80
2024-03-16T19:22:58.504Z,20.40
2024-03-16T19:25:46.742Z,26.70
2024-03-16T19:28:34.684Z,17.00
2024-03-16T19:31:25.921Z,20.80
2024-03-16T19:34:13.934Z,17.70
2024-03-16T19:37:02.080Z,19.00
2024-03-16T19:39:50.181Z,18.80
2024-03-16T19:42:38.779Z,20.30
2024-03-16T19:45:27.244Z,19.90
2024-03-16T19:48:15.711Z,18.80
2024-03-16T19:51:04.032Z,16.90
2024-03-16T19:53:51.931Z,17.70
2024-03-16T19:56:39.871Z,12.90
2024-03-16T19:59:27.964Z,14.00
2024-03-16T20:02:17.532Z,10.70
2024-03-16T20:05:06.084Z,11.10
2024-03-16T20:07:55.661Z,6.40
2024-03-16T20:10:43.769Z,9.50
2024-03-16T20:13:31.950Z,8.30
2024-03-16T20:16:19.836Z,10.70
2024-03-16T20:19:08.138Z,10.90
2024-03-16T20:21:57.594Z,10.50
2024-03-16T20:24:47.032Z,7.50
2024-03-16T20:27:35.992Z,8.70
2024-03-16T20:30:23.706Z,7.40
2024-03-16T20:33:14.034Z,10.90
2024-03-16T20:38:50.063Z,11.20
2024-03-16T20:41:39.539Z,10.30
2024-03-16T20:44:27.525Z,12.80
2024-03-16T20:47:15.519Z,15.10
2024-03-16T20:50:07.488Z,8.30
2024-03-16T20:52:55.387Z,15.60
2024-03-16T20:55:44.043Z,8.80
2024-03-16T20:58:32.808Z,7.80
2024-03-16T21:01:20.845Z,7.50
2024-03-16T21:04:10.003Z,11.10
2024-03-16T21:06:57.985Z,9.20
2024-03-16T21:09:45.910Z,11.50
2024-03-16T21:12:37.441Z,13.50
2024-03-16T21:15:26.583Z,15.10
2024-03-16T21:18:15.870Z,12.50
2024-03-16T21:21:14.655Z,5.00
2024-03-16T21:25:20.735Z,8.90
2024-03-16T21:28:16.660Z,5.20
2024-03-16T21:31:06.974Z,5.00
2024-03-16T21:33:55.442Z,5.10
2024-03-16T21:36:43.882Z,5.20
2024-03-16T21:39:33.085Z,6.50
2024-03-16T21:42:20.849Z,12.10
2024-03-16T21:45:10.063Z,11.00
2024-03-16T21:47:58.162Z,7.60
2024-03-16T21:50:47.952Z,6.70
2024-03-16T21:53:37.377Z,5.40
2024-03-16T21:56:25.587Z,5.50
2024-03-16T21:59:13.809Z,6.80
2024-03-16T22:02:02.478Z,6.40
2024-03-16T22:04:53.295Z,10.30
2024-03-16T22:07:43.789Z,8.40
2024-03-16T22:10:32.837Z,14.80
2024-03-16T22:13:20.828Z,16.60
2024-03-16T22:16:09.239Z,14.20
2024-03-16T22:18:57.290Z,12.00
2024-03-16T22:21:45.310Z,15.30
2024-03-16T22:24:34.492Z,31.20
2024-03-16T22:27:25.088Z,34.00
2024-03-16T22:30:16.208Z,34.50
2024-03-16T22:33:06.692Z,38.50
2024-03-16T22:38:42.313Z,29.60
2024-03-16T22:41:30.614Z,19.90
2024-03-16T22:44:19.972Z,12.70
2024-03-16T22:47:07.726Z,5.10
2024-03-16T22:49:55.821Z,24.80
2024-03-16T22:52:43.809Z,3.10
2024-03-16T22:55:32.016Z,3.80
2024-03-16T22:58:19.887Z,10.40
2024-03-16T23:01:07.973Z,3.30
2024-03-16T23:03:56.803Z,11.10
2024-03-16T23:06:47.801Z,5.70
2024-03-16T23:09:35.763Z,16.10
2024-03-16T23:12:24.188Z,12.90
2024-03-16T23:15:12.336Z,13.70
2024-03-16T23:18:00.070Z,6.50
2024-03-16T23:20:48.315Z,10.50
2024-03-16T23:23:37.426Z,5.60
2024-03-16T23:26:32.115Z,7.40
2024-03-16T23:29:25.004Z,8.60
2024-03-16T23:32:13.488Z,20.10
2024-03-16T23:35:01.735Z,23.90
2024-03-16T23:37:50.216Z,29.40
2024-03-16T23:40:39.296Z,29.00
2024-03-16T23:43:27.326Z,38.70
2024-03-16T23:46:15.239Z,91.00
2024-03-16T23:49:04.498Z,107.50
2024-03-16T23:51:52.490Z,24.70
2024-03-16T23:54:40.993Z,21.60
2024-03-16T23:57:28.837Z,36.60
